Time;durP1;ratioP1;P1;durP2;ratioP2;P2;SDS_P1;SDS_P2;PMS_P1;PMS_P2;Temp;Humidity;BMP_temperature;BMP_pressure;BME280_temperature;BME280_humidity;BME280_pressure;Samples;Min_cycle;Max_cycle;Signal;HPM_P1;HPM_P2
2022/03/21 00:00:39;;;;;;;7.97;4.20;;;;;;;;;;5103451;28;20628;-74
2022/03/21 00:03:08;;;;;;;6.40;5.17;;;;;;;;;;5112847;28;20209;-74
2022/03/21 00:05:36;;;;;;;5.90;4.57;;;;;;;;;;5113228;28;20676;-74
2022/03/21 00:08:04;;;;;;;7.00;4.30;;;;;;;;;;5102751;28;20277;-74
2022/03/21 00:10:35;;;;;;;8.13;4.43;;;;;;;;;;5107313;28;20231;-74
2022/03/21 00:13:03;;;;;;;8.37;4.10;;;;;;;;;;5103428;28;20233;-74
2022/03/21 00:15:32;;;;;;;4.83;3.97;;;;;;;;;;5109644;28;20245;-74
2022/03/21 00:18:01;;;;;;;5.93;4.50;;;;;;;;;;5103566;28;20307;-74
2022/03/21 00:20:30;;;;;;;8.27;4.17;;;;;;;;;;5106018;28;20220;-74
2022/03/21 00:22:58;;;;;;;6.80;4.47;;;;;;;;;;5104084;28;20276;-74
2022/03/21 00:25:26;;;;;;;7.33;4.47;;;;;;;;;;5100901;28;20304;-74
2022/03/21 00:27:56;;;;;;;5.30;4.50;;;;;;;;;;5108823;28;20228;-74
2022/03/21 00:30:24;;;;;;;5.27;3.90;;;;;;;;;;5108961;28;20703;-74
2022/03/21 00:32:52;;;;;;;6.33;4.17;;;;;;;;;;5109155;28;20227;-74
2022/03/21 00:35:20;;;;;;;5.57;3.80;;;;;;;;;;5102712;28;20248;-74
2022/03/21 00:37:48;;;;;;;6.77;4.33;;;;;;;;;;5103349;28;20205;-74
2022/03/21 00:40:17;;;;;;;5.67;4.30;;;;;;;;;;5113607;28;20220;-74
2022/03/21 00:42:46;;;;;;;6.97;4.83;;;;;;;;;;5107022;28;20280;-74
2022/03/21 00:45:16;;;;;;;4.60;4.20;;;;;;;;;;5101467;28;20249;-74
2022/03/21 00:47:45;;;;;;;4.67;4.00;;;;;;;;;;5109921;28;20257;-74
2022/03/21 00:50:13;;;;;;;4.93;4.00;;;;;;;;;;5111022;28;20283;-74
2022/03/21 00:52:42;;;;;;;7.10;4.43;;;;;;;;;;5106335;28;20229;-74
2022/03/21 00:55:11;;;;;;;6.77;4.60;;;;;;;;;;5102882;28;20229;-74
2022/03/21 00:57:40;;;;;;;6.30;4.53;;;;;;;;;;5105793;28;20231;-74
2022/03/21 01:00:09;;;;;;;6.77;5.00;;;;;;;;;;5105372;28;20731;-74
2022/03/21 01:02:39;;;;;;;6.80;4.63;;;;;;;;;;5100583;28;20688;-74
2022/03/21 01:05:08;;;;;;;7.23;4.50;;;;;;;;;;5113727;28;20227;-74
2022/03/21 01:07:36;;;;;;;6.70;4.30;;;;;;;;;;5106470;28;20225;-74
2022/03/21 01:10:05;;;;;;;6.80;4.27;;;;;;;;;;5117018;28;20239;-74
2022/03/21 01:12:33;;;;;;;11.43;5.20;;;;;;;;;;5109021;28;20293;-74
2022/03/21 01:15:02;;;;;;;5.93;4.67;;;;;;;;;;5111422;28;20228;-75
2022/03/21 01:17:30;;;;;;;6.87;4.47;;;;;;;;;;5108158;28;20209;-74
2022/03/21 01:20:00;;;;;;;5.53;4.37;;;;;;;;;;5105511;28;20229;-74
2022/03/21 01:22:28;;;;;;;5.57;4.47;;;;;;;;;;5100800;28;20229;-74
2022/03/21 01:24:56;;;;;;;6.03;4.10;;;;;;;;;;5109430;28;20267;-74
2022/03/21 01:27:24;;;;;;;6.37;4.93;;;;;;;;;;5103886;28;20228;-74
2022/03/21 01:29:52;;;;;;;7.03;4.33;;;;;;;;;;5111764;28;20201;-74
2022/03/21 01:32:20;;;;;;;5.90;4.30;;;;;;;;;;5111207;28;20634;-74
2022/03/21 01:34:48;;;;;;;4.60;4.00;;;;;;;;;;5100522;28;20221;-74
2022/03/21 01:37:17;;;;;;;5.07;4.30;;;;;;;;;;5111760;28;20252;-74
2022/03/21 01:39:45;;;;;;;4.63;4.00;;;;;;;;;;5112270;28;20224;-74
2022/03/21 01:42:14;;;;;;;6.47;4.73;;;;;;;;;;5104285;28;20230;-74
2022/03/21 01:44:42;;;;;;;8.27;4.30;;;;;;;;;;5100129;28;20250;-74
2022/03/21 01:47:10;;;;;;;5.90;4.33;;;;;;;;;;5110560;28;20253;-74
2022/03/21 01:49:38;;;;;;;5.97;4.30;;;;;;;;;;5101360;28;20232;-74
2022/03/21 01:52:06;;;;;;;5.97;4.57;;;;;;;;;;5105516;28;20217;-74
2022/03/21 01:57:22;;;;;;;4.90;3.80;;;;;;;;;;5111817;28;20660;-74
2022/03/21 01:59:50;;;;;;;6.07;3.90;;;;;;;;;;5107551;28;20261;-74
2022/03/21 02:02:18;;;;;;;7.10;4.97;;;;;;;;;;5102023;28;20197;-74
2022/03/21 02:04:47;;;;;;;5.77;4.30;;;;;;;;;;5102100;28;20640;-74
2022/03/21 02:07:15;;;;;;;5.10;3.90;;;;;;;;;;5109620;28;20263;-74
2022/03/21 02:09:45;;;;;;;8.60;4.87;;;;;;;;;;5105570;28;20229;-75
2022/03/21 02:12:13;;;;;;;5.77;4.30;;;;;;;;;;5113173;28;20290;-75
2022/03/21 02:14:41;;;;;;;6.27;4.53;;;;;;;;;;5105693;28;20632;-74
2022/03/21 02:17:10;;;;;;;5.00;4.50;;;;;;;;;;5113063;28;20305;-74
2022/03/21 02:19:39;;;;;;;9.13;4.80;;;;;;;;;;5114081;28;20287;-74
2022/03/21 02:22:12;;;;;;;7.37;3.83;;;;;;;;;;5109257;28;20359;-75
2022/03/21 02:24:46;;;;;;;6.53;4.00;;;;;;;;;;5105578;28;20284;-74
2022/03/21 02:27:16;;;;;;;6.73;4.30;;;;;;;;;;5103906;28;20708;-74
2022/03/21 02:29:45;;;;;;;4.80;4.03;;;;;;;;;;5114794;28;20231;-74
2022/03/21 02:32:13;;;;;;;4.43;3.90;;;;;;;;;;5115190;28;20288;-74
2022/03/21 02:34:42;;;;;;;6.80;4.70;;;;;;;;;;5114108;28;20201;-74
2022/03/21 02:37:11;;;;;;;4.83;4.10;;;;;;;;;;5103208;28;20300;-74
2022/03/21 02:39:40;;;;;;;5.73;4.27;;;;;;;;;;5103105;28;20224;-74
2022/03/21 02:42:08;;;;;;;4.27;3.80;;;;;;;;;;5107688;28;20571;-74
2022/03/21 02:44:38;;;;;;;4.73;4.00;;;;;;;;;;5106287;28;20233;-73
2022/03/21 02:47:07;;;;;;;5.83;4.17;;;;;;;;;;5110758;28;20319;-73
2022/03/21 02:49:35;;;;;;;5.47;4.30;;;;;;;;;;5114003;28;20267;-75
2022/03/21 02:52:04;;;;;;;5.77;4.20;;;;;;;;;;5116270;28;20267;-74
2022/03/21 02:54:33;;;;;;;5.53;3.70;;;;;;;;;;5113057;28;20206;-74
2022/03/21 02:57:01;;;;;;;6.17;4.57;;;;;;;;;;5118315;28;20255;-74
2022/03/21 02:59:29;;;;;;;5.27;4.63;;;;;;;;;;5106502;28;20320;-74
2022/03/21 03:01:59;;;;;;;5.53;4.13;;;;;;;;;;5111339;28;20205;-73
2022/03/21 03:04:28;;;;;;;6.13;4.63;;;;;;;;;;5104134;28;20206;-74
2022/03/21 03:06:56;;;;;;;6.23;4.77;;;;;;;;;;5112527;28;20256;-74
2022/03/21 03:09:24;;;;;;;8.07;4.60;;;;;;;;;;5107742;28;20631;-74
2022/03/21 03:11:52;;;;;;;6.03;4.67;;;;;;;;;;5119293;28;20284;-74
2022/03/21 03:14:19;;;;;;;7.50;4.50;;;;;;;;;;5119152;28;20280;-74
2022/03/21 03:16:47;;;;;;;5.90;4.90;;;;;;;;;;5119355;28;20248;-74
2022/03/21 03:19:17;;;;;;;7.47;4.83;;;;;;;;;;5119562;28;20197;-74
2022/03/21 03:21:47;;;;;;;6.30;4.37;;;;;;;;;;5119734;28;20225;-74
2022/03/21 03:24:16;;;;;;;7.80;4.40;;;;;;;;;;5111451;28;20288;-74
2022/03/21 03:26:44;;;;;;;7.70;4.87;;;;;;;;;;5114793;27;20259;-74
2022/03/21 03:29:15;;;;;;;5.67;4.93;;;;;;;;;;5113436;27;20204;-75
2022/03/21 03:31:44;;;;;;;7.37;4.70;;;;;;;;;;5114366;27;20231;-73
2022/03/21 03:34:12;;;;;;;6.20;4.80;;;;;;;;;;5117216;28;20269;-73
2022/03/21 03:36:41;;;;;;;8.27;4.30;;;;;;;;;;5117701;28;20311;-73
2022/03/21 03:39:09;;;;;;;6.73;4.73;;;;;;;;;;5113474;27;20283;-73
2022/03/21 03:41:38;;;;;;;6.57;4.10;;;;;;;;;;5107448;27;20228;-71
2022/03/21 03:44:07;;;;;;;10.10;5.10;;;;;;;;;;5106346;27;20240;-72
2022/03/21 03:46:35;;;;;;;4.43;4.03;;;;;;;;;;5102606;28;20656;-72
2022/03/21 03:49:03;;;;;;;6.43;4.73;;;;;;;;;;5104769;27;20262;-73
2022/03/21 03:51:31;;;;;;;6.13;4.60;;;;;;;;;;5103584;27;20736;-73
2022/03/21 03:54:01;;;;;;;5.63;4.87;;;;;;;;;;5105758;27;20240;-73
2022/03/21 03:56:29;;;;;;;5.53;4.17;;;;;;;;;;5107103;28;20256;-73
2022/03/21 03:58:57;;;;;;;4.97;4.37;;;;;;;;;;5104663;28;20232;-72
2022/03/21 04:01:25;;;;;;;5.57;4.93;;;;;;;;;;5108909;27;20200;-73
2022/03/21 04:03:54;;;;;;;6.23;4.30;;;;;;;;;;5103933;27;20198;-74
2022/03/21 04:06:22;;;;;;;8.63;5.40;;;;;;;;;;5107141;27;20303;-73
2022/03/21 04:08:51;;;;;;;8.13;5.20;;;;;;;;;;5104787;28;20232;-73
2022/03/21 04:11:21;;;;;;;7.40;4.30;;;;;;;;;;5105724;28;20687;-73
2022/03/21 04:13:49;;;;;;;8.40;5.73;;;;;;;;;;5107774;28;20253;-73
2022/03/21 04:16:18;;;;;;;5.97;4.80;;;;;;;;;;5107934;28;20220;-73
2022/03/21 04:18:46;;;;;;;7.97;5.50;;;;;;;;;;5111221;28;20200;-73
2022/03/21 04:21:29;;;;;;;8.10;4.67;;;;;;;;;;5110306;28;20208;-74
2022/03/21 04:23:58;;;;;;;5.33;4.83;;;;;;;;;;5114580;28;20239;-74
2022/03/21 04:26:27;;;;;;;9.73;4.80;;;;;;;;;;5117248;27;20217;-73
2022/03/21 04:28:56;;;;;;;9.07;4.40;;;;;;;;;;5116023;28;20240;-73
2022/03/21 04:31:24;;;;;;;6.70;5.00;;;;;;;;;;5118006;28;20251;-74
2022/03/21 04:33:52;;;;;;;8.50;5.17;;;;;;;;;;5109146;28;20750;-73
2022/03/21 04:36:20;;;;;;;7.90;4.77;;;;;;;;;;5116326;28;20674;-74
2022/03/21 04:38:48;;;;;;;6.10;5.40;;;;;;;;;;5113414;28;20201;-73
2022/03/21 04:41:17;;;;;;;8.03;5.10;;;;;;;;;;5116375;28;20284;-74
2022/03/21 04:43:46;;;;;;;13.10;5.10;;;;;;;;;;5116318;28;20285;-74
2022/03/21 04:46:14;;;;;;;7.57;4.57;;;;;;;;;;5113058;28;20252;-73
2022/03/21 04:48:42;;;;;;;7.53;4.83;;;;;;;;;;5111725;27;20279;-74
2022/03/21 04:51:10;;;;;;;10.07;5.00;;;;;;;;;;5116603;28;20232;-73
2022/03/21 04:53:38;;;;;;;6.33;4.73;;;;;;;;;;5117065;28;20285;-73
2022/03/21 04:56:06;;;;;;;7.10;5.10;;;;;;;;;;5116345;28;20255;-73
2022/03/21 04:58:34;;;;;;;8.93;5.03;;;;;;;;;;5116503;28;20338;-73
2022/03/21 05:01:04;;;;;;;7.90;5.17;;;;;;;;;;5116330;28;20205;-73
2022/03/21 05:03:32;;;;;;;6.83;4.57;;;;;;;;;;5117119;28;20193;-73
2022/03/21 05:06:01;;;;;;;7.53;4.60;;;;;;;;;;5117290;28;20578;-73
2022/03/21 05:08:29;;;;;;;6.17;4.43;;;;;;;;;;5116362;28;20221;-73
2022/03/21 05:10:57;;;;;;;5.97;4.80;;;;;;;;;;5116859;28;20197;-73
2022/03/21 05:13:25;;;;;;;7.07;5.50;;;;;;;;;;5115562;28;20297;-73
2022/03/21 05:15:53;;;;;;;9.40;4.73;;;;;;;;;;5116708;28;20278;-72
2022/03/21 05:18:23;;;;;;;8.00;5.20;;;;;;;;;;5116321;28;20214;-73
2022/03/21 05:20:51;;;;;;;7.73;4.70;;;;;;;;;;5110584;28;20197;-63
2022/03/21 05:31:36;;;;;;;6.63;5.13;;;;;;;;;;5116362;28;20283;-64
2022/03/21 05:36:53;;;;;;;8.63;5.80;;;;;;;;;;5115523;28;20759;-65
2022/03/21 05:39:21;;;;;;;7.67;5.27;;;;;;;;;;5116001;28;20292;-64
2022/03/21 05:41:51;;;;;;;10.40;6.27;;;;;;;;;;5117985;28;20567;-65
2022/03/21 05:44:19;;;;;;;6.07;5.40;;;;;;;;;;5119659;27;20296;-65
2022/03/21 05:46:47;;;;;;;10.17;5.73;;;;;;;;;;5119926;28;20248;-65
2022/03/21 05:49:16;;;;;;;8.27;5.17;;;;;;;;;;5120288;28;20706;-65
2022/03/21 05:51:44;;;;;;;8.37;5.27;;;;;;;;;;5120481;28;20224;-65
2022/03/21 05:54:13;;;;;;;9.53;6.20;;;;;;;;;;5117961;27;20287;-65
2022/03/21 05:56:41;;;;;;;8.13;5.33;;;;;;;;;;5117465;27;20253;-65
2022/03/21 06:01:55;;;;;;;9.83;5.23;;;;;;;;;;5116043;28;20220;-65
2022/03/21 06:04:25;;;;;;;8.77;5.70;;;;;;;;;;5118779;27;20790;-65
2022/03/21 06:06:53;;;;;;;10.63;6.33;;;;;;;;;;5119157;28;20255;-65
2022/03/21 06:09:21;;;;;;;12.93;6.57;;;;;;;;;;5117404;28;20224;-65
2022/03/21 06:11:49;;;;;;;8.07;5.60;;;;;;;;;;5118550;28;20615;-65
2022/03/21 06:14:18;;;;;;;9.10;6.30;;;;;;;;;;5119229;27;20224;-65
2022/03/21 06:16:46;;;;;;;8.27;5.23;;;;;;;;;;5118800;27;20229;-65
2022/03/21 06:19:15;;;;;;;9.17;6.10;;;;;;;;;;5116990;28;20199;-66
2022/03/21 06:21:44;;;;;;;12.50;5.30;;;;;;;;;;5118076;27;20265;-65
2022/03/21 06:24:13;;;;;;;12.80;7.47;;;;;;;;;;5118947;28;20228;-66
2022/03/21 06:26:41;;;;;;;9.47;6.30;;;;;;;;;;5112854;27;20224;-65
2022/03/21 06:29:09;;;;;;;11.37;6.57;;;;;;;;;;5118100;28;20284;-65
2022/03/21 06:31:38;;;;;;;10.03;7.20;;;;;;;;;;5119100;27;20231;-65
2022/03/21 06:34:06;;;;;;;8.33;5.93;;;;;;;;;;5113171;27;20208;-65
2022/03/21 06:36:34;;;;;;;7.97;6.27;;;;;;;;;;5117677;28;20273;-65
2022/03/21 06:39:05;;;;;;;8.17;6.07;;;;;;;;;;5118648;27;20205;-65
2022/03/21 06:41:33;;;;;;;8.10;5.97;;;;;;;;;;5117920;27;20217;-65
2022/03/21 06:44:01;;;;;;;11.47;6.47;;;;;;;;;;5116787;27;20284;-65
2022/03/21 06:46:29;;;;;;;6.83;5.93;;;;;;;;;;5116174;27;20221;-65
2022/03/21 06:48:57;;;;;;;11.53;5.90;;;;;;;;;;5118554;27;20240;-64
2022/03/21 06:51:26;;;;;;;10.77;5.97;;;;;;;;;;5118678;28;20676;-65
2022/03/21 06:53:54;;;;;;;10.37;6.57;;;;;;;;;;5117068;28;20572;-72
2022/03/21 06:56:23;;;;;;;15.53;6.30;;;;;;;;;;5118550;28;20213;-71
2022/03/21 06:58:51;;;;;;;9.00;6.20;;;;;;;;;;5117297;28;20248;-72
2022/03/21 07:01:19;;;;;;;10.07;6.03;;;;;;;;;;5118353;28;20221;-73
2022/03/21 07:03:48;;;;;;;10.63;6.83;;;;;;;;;;5117737;28;20296;-71
2022/03/21 07:06:17;;;;;;;11.33;5.70;;;;;;;;;;5117296;28;20248;-69
2022/03/21 07:08:51;;;;;;;8.03;6.17;;;;;;;;;;5114109;27;20308;-69
2022/03/21 07:11:20;;;;;;;8.23;6.30;;;;;;;;;;5117876;28;20207;-71
2022/03/21 07:13:49;;;;;;;10.53;5.80;;;;;;;;;;5117726;27;20229;-66
2022/03/21 07:16:17;;;;;;;10.43;6.43;;;;;;;;;;5109448;28;20217;-69
2022/03/21 07:18:47;;;;;;;9.73;6.53;;;;;;;;;;5115347;28;20193;-70
2022/03/21 07:21:16;;;;;;;8.80;6.27;;;;;;;;;;5113990;27;20235;-71
2022/03/21 07:23:44;;;;;;;7.70;5.90;;;;;;;;;;5117080;27;20660;-71
2022/03/21 07:26:13;;;;;;;9.30;6.13;;;;;;;;;;5117673;28;20718;-70
2022/03/21 07:28:41;;;;;;;11.70;6.23;;;;;;;;;;5111271;28;20216;-66
2022/03/21 07:31:31;;;;;;;10.93;6.37;;;;;;;;;;5116577;28;20193;-68
2022/03/21 07:33:59;;;;;;;11.87;6.70;;;;;;;;;;5117567;28;20296;-71
2022/03/21 07:36:29;;;;;;;7.40;5.90;;;;;;;;;;5116477;27;20678;-71
2022/03/21 07:38:57;;;;;;;12.40;6.50;;;;;;;;;;5117799;28;20189;-69
2022/03/21 07:41:26;;;;;;;7.60;5.87;;;;;;;;;;5104886;27;20636;-69
2022/03/21 07:43:57;;;;;;;10.37;5.80;;;;;;;;;;5111691;28;20197;-70
2022/03/21 07:49:12;;;;;;;10.90;7.00;;;;;;;;;;5106628;27;20656;-70
2022/03/21 07:51:43;;;;;;;8.87;6.33;;;;;;;;;;5112919;28;20636;-71
2022/03/21 07:54:12;;;;;;;14.83;7.23;;;;;;;;;;5103130;28;20201;-71
2022/03/21 07:56:40;;;;;;;9.13;6.50;;;;;;;;;;5116601;28;20255;-70
2022/03/21 07:59:08;;;;;;;8.40;5.77;;;;;;;;;;5116555;28;20262;-70
2022/03/21 08:01:37;;;;;;;9.53;6.37;;;;;;;;;;5117387;28;20224;-70
2022/03/21 08:04:05;;;;;;;11.10;6.43;;;;;;;;;;5116516;28;20197;-72
2022/03/21 08:06:35;;;;;;;9.30;5.67;;;;;;;;;;5110086;28;20259;-71
2022/03/21 08:09:03;;;;;;;13.90;5.83;;;;;;;;;;5117247;28;20224;-71
2022/03/21 08:11:31;;;;;;;9.03;7.13;;;;;;;;;;5109312;28;20775;-72
2022/03/21 08:13:59;;;;;;;7.70;5.50;;;;;;;;;;5116480;28;20285;-72
2022/03/21 08:16:27;;;;;;;12.10;6.40;;;;;;;;;;5116048;28;20259;-71
2022/03/21 08:18:55;;;;;;;8.37;6.37;;;;;;;;;;5117285;28;20189;-73
2022/03/21 08:21:23;;;;;;;8.43;6.67;;;;;;;;;;5116005;28;20671;-71
2022/03/21 08:23:53;;;;;;;7.43;6.13;;;;;;;;;;5116779;28;20228;-71
2022/03/21 08:26:21;;;;;;;9.00;6.27;;;;;;;;;;5116111;28;20252;-71
2022/03/21 08:28:49;;;;;;;8.90;6.13;;;;;;;;;;5108507;28;20255;-71
2022/03/21 08:31:17;;;;;;;9.00;6.03;;;;;;;;;;5112675;28;20246;-71
2022/03/21 08:33:45;;;;;;;20.77;8.27;;;;;;;;;;5116203;28;20208;-71
2022/03/21 08:36:13;;;;;;;8.83;6.73;;;;;;;;;;5116674;28;20256;-71
2022/03/21 08:38:41;;;;;;;15.77;7.50;;;;;;;;;;5116135;28;20233;-70
2022/03/21 08:41:11;;;;;;;12.37;6.80;;;;;;;;;;5115489;28;20201;-71
2022/03/21 08:43:39;;;;;;;11.20;6.63;;;;;;;;;;5110120;28;20235;-70
2022/03/21 08:46:07;;;;;;;12.40;6.70;;;;;;;;;;5116998;28;20266;-70
2022/03/21 08:51:43;;;;;;;8.70;6.43;;;;;;;;;;5113217;28;20219;-71
2022/03/21 08:54:12;;;;;;;8.30;6.13;;;;;;;;;;5111877;28;20635;-73
2022/03/21 08:56:41;;;;;;;8.47;5.93;;;;;;;;;;5112697;28;20303;-72
2022/03/21 08:59:09;;;;;;;8.53;6.27;;;;;;;;;;5112862;28;20259;-70
2022/03/21 09:01:37;;;;;;;7.17;5.93;;;;;;;;;;5113262;28;20232;-71
2022/03/21 09:04:05;;;;;;;7.73;6.53;;;;;;;;;;5112565;28;20201;-71
2022/03/21 09:06:34;;;;;;;8.37;6.47;;;;;;;;;;5110887;28;20246;-71
2022/03/21 09:09:02;;;;;;;7.73;6.60;;;;;;;;;;5112753;28;20231;-70
2022/03/21 09:11:30;;;;;;;10.20;6.37;;;;;;;;;;5106885;28;20289;-70
2022/03/21 09:13:59;;;;;;;8.03;6.17;;;;;;;;;;5108327;28;20204;-70
2022/03/21 09:16:27;;;;;;;10.57;6.23;;;;;;;;;;5118183;28;20316;-69
2022/03/21 09:18:55;;;;;;;9.10;6.57;;;;;;;;;;5116934;28;20189;-70
2022/03/21 09:21:24;;;;;;;7.77;6.13;;;;;;;;;;5118973;28;20254;-69
2022/03/21 09:23:52;;;;;;;12.00;6.50;;;;;;;;;;5119462;28;20197;-71
2022/03/21 09:26:21;;;;;;;15.23;6.13;;;;;;;;;;5118006;28;20239;-70
2022/03/21 09:28:50;;;;;;;7.97;6.03;;;;;;;;;;5119512;28;20227;-70
2022/03/21 09:31:19;;;;;;;8.50;6.00;;;;;;;;;;5116701;28;20284;-70
2022/03/21 09:34:06;;;;;;;9.57;6.27;;;;;;;;;;5115438;28;20201;-71
2022/03/21 09:36:34;;;;;;;9.57;6.00;;;;;;;;;;5117803;27;20252;-70
2022/03/21 09:39:02;;;;;;;7.87;6.13;;;;;;;;;;5119258;28;20228;-70
2022/03/21 09:41:30;;;;;;;8.27;6.10;;;;;;;;;;5120010;28;20257;-71
2022/03/21 09:44:00;;;;;;;7.97;5.30;;;;;;;;;;5117306;28;20224;-70
2022/03/21 09:46:29;;;;;;;8.37;6.23;;;;;;;;;;5113883;27;20266;-70
2022/03/21 09:48:58;;;;;;;26.80;9.97;;;;;;;;;;5118980;28;20733;-70
2022/03/21 09:51:26;;;;;;;33.80;10.67;;;;;;;;;;5115848;28;20197;-66
2022/03/21 09:53:54;;;;;;;50.07;12.43;;;;;;;;;;5119375;28;20223;-65
2022/03/21 09:56:23;;;;;;;71.60;16.83;;;;;;;;;;5112869;28;21020;-71
2022/03/21 09:58:54;;;;;;;38.47;10.73;;;;;;;;;;5118679;28;20256;-70
2022/03/21 10:01:22;;;;;;;34.50;10.00;;;;;;;;;;5117302;28;20235;-71
2022/03/21 10:03:51;;;;;;;48.47;11.70;;;;;;;;;;5117076;28;20690;-71
2022/03/21 10:06:27;;;;;;;8.80;5.97;;;;;;;;;;5118290;28;20213;-72
2022/03/21 10:09:04;;;;;;;13.10;6.10;;;;;;;;;;5118845;28;20196;-71
2022/03/21 10:11:32;;;;;;;26.23;8.03;;;;;;;;;;5112967;28;20225;-71
2022/03/21 10:14:01;;;;;;;8.27;6.10;;;;;;;;;;5114776;27;20254;-70
2022/03/21 10:16:29;;;;;;;8.03;5.77;;;;;;;;;;5116177;28;20299;-70
2022/03/21 10:19:00;;;;;;;7.03;5.20;;;;;;;;;;5116138;28;20201;-71
2022/03/21 10:21:29;;;;;;;12.03;5.57;;;;;;;;;;5117074;28;20651;-72
2022/03/21 10:24:02;;;;;;;8.70;6.10;;;;;;;;;;5118375;28;20276;-72
2022/03/21 10:26:31;;;;;;;10.53;5.70;;;;;;;;;;5118177;28;20219;-72
2022/03/21 10:28:59;;;;;;;14.70;6.40;;;;;;;;;;5117873;28;20224;-71
2022/03/21 10:31:34;;;;;;;6.97;5.57;;;;;;;;;;5115969;28;20307;-71
2022/03/21 10:34:04;;;;;;;9.40;5.97;;;;;;;;;;5118950;28;20196;-67
2022/03/21 10:36:33;;;;;;;8.37;5.63;;;;;;;;;;5112433;28;20266;-72
2022/03/21 10:39:07;;;;;;;9.20;6.20;;;;;;;;;;5118103;28;20283;-71
2022/03/21 10:41:37;;;;;;;9.03;6.03;;;;;;;;;;5118117;28;20211;-70
2022/03/21 10:44:06;;;;;;;8.30;5.43;;;;;;;;;;5116609;27;20224;-71
2022/03/21 10:46:34;;;;;;;8.37;5.67;;;;;;;;;;5117286;28;20249;-71
2022/03/21 10:49:03;;;;;;;8.10;6.03;;;;;;;;;;5117834;28;20231;-71
2022/03/21 10:51:48;;;;;;;9.97;5.67;;;;;;;;;;5114202;28;20300;-71
2022/03/21 10:54:34;;;;;;;7.73;5.30;;;;;;;;;;5118347;28;20714;-71
2022/03/21 10:57:02;;;;;;;7.03;5.43;;;;;;;;;;5112810;27;20251;-70
2022/03/21 10:59:30;;;;;;;8.50;6.30;;;;;;;;;;5114521;28;20315;-70
2022/03/21 11:02:10;;;;;;;8.00;5.27;;;;;;;;;;5117541;28;20236;-68
2022/03/21 11:04:38;;;;;;;7.70;5.70;;;;;;;;;;5117839;28;20196;-68
2022/03/21 11:07:11;;;;;;;8.60;5.57;;;;;;;;;;5118400;28;20311;-69
2022/03/21 11:09:40;;;;;;;7.20;5.40;;;;;;;;;;5116007;28;20295;-71
2022/03/21 11:12:09;;;;;;;7.67;6.20;;;;;;;;;;5117099;28;20227;-73
2022/03/21 11:14:38;;;;;;;12.20;6.97;;;;;;;;;;5116588;28;20240;-66
2022/03/21 11:17:07;;;;;;;11.13;7.13;;;;;;;;;;5117832;28;20376;-66
2022/03/21 11:19:35;;;;;;;10.13;7.23;;;;;;;;;;5113771;28;20228;-67
2022/03/21 11:22:04;;;;;;;10.47;6.93;;;;;;;;;;5117616;28;20296;-68
2022/03/21 11:24:35;;;;;;;8.43;6.20;;;;;;;;;;5112340;28;21225;-66
2022/03/21 11:27:15;;;;;;;8.10;6.53;;;;;;;;;;5115313;28;20255;-67
2022/03/21 11:29:53;;;;;;;10.07;6.73;;;;;;;;;;5115675;28;20232;-66
2022/03/21 11:32:25;;;;;;;9.23;5.80;;;;;;;;;;5115214;28;20730;-66
2022/03/21 11:34:58;;;;;;;11.93;6.77;;;;;;;;;;5116339;28;20232;-66
2022/03/21 11:37:26;;;;;;;10.50;6.77;;;;;;;;;;5117221;28;20212;-66
2022/03/21 11:40:13;;;;;;;9.10;6.57;;;;;;;;;;5114823;28;20201;-66
2022/03/21 11:42:42;;;;;;;7.67;6.27;;;;;;;;;;5115564;28;20193;-66
2022/03/21 11:45:24;;;;;;;7.67;5.87;;;;;;;;;;5117895;28;20270;-66
2022/03/21 11:48:09;;;;;;;9.37;6.30;;;;;;;;;;5116197;28;20205;-64
2022/03/21 11:50:37;;;;;;;6.83;6.13;;;;;;;;;;5109523;28;20248;-72
2022/03/21 11:53:07;;;;;;;6.63;5.60;;;;;;;;;;5115335;28;20280;-70
2022/03/21 11:55:39;;;;;;;6.87;6.20;;;;;;;;;;5113442;28;20244;-71
2022/03/21 11:58:44;;;;;;;8.00;6.07;;;;;;;;;;5112794;27;20236;-71
2022/03/21 12:01:13;;;;;;;6.93;5.37;;;;;;;;;;5113339;28;20620;-71
2022/03/21 12:03:43;;;;;;;7.40;5.53;;;;;;;;;;5116801;28;20239;-70
2022/03/21 12:06:24;;;;;;;6.70;5.50;;;;;;;;;;5116577;28;20589;-69
2022/03/21 12:08:53;;;;;;;8.73;6.23;;;;;;;;;;5114328;28;20193;-70
2022/03/21 12:11:48;;;;;;;14.23;5.60;;;;;;;;;;5115249;28;20209;-71
2022/03/21 12:14:28;;;;;;;9.13;5.87;;;;;;;;;;5114271;28;20243;-70
2022/03/21 12:17:14;;;;;;;6.97;5.60;;;;;;;;;;5114954;28;20287;-70
2022/03/21 12:19:58;;;;;;;8.43;5.90;;;;;;;;;;5116523;28;20217;-69
2022/03/21 12:22:50;;;;;;;9.30;5.93;;;;;;;;;;5116757;28;20192;-71
2022/03/21 12:25:20;;;;;;;9.27;5.63;;;;;;;;;;5115530;28;20219;-71
2022/03/21 12:27:50;;;;;;;8.20;5.33;;;;;;;;;;5113246;28;20197;-70
2022/03/21 12:30:39;;;;;;;6.33;5.37;;;;;;;;;;5116536;28;20208;-71
2022/03/21 12:33:24;;;;;;;8.20;6.10;;;;;;;;;;5114718;28;20200;-70
2022/03/21 12:36:06;;;;;;;8.03;5.80;;;;;;;;;;5113188;28;20212;-70
2022/03/21 12:38:36;;;;;;;11.43;6.03;;;;;;;;;;5111605;27;20196;-70
2022/03/21 12:41:09;;;;;;;9.77;6.10;;;;;;;;;;5115675;28;20189;-70
2022/03/21 12:43:45;;;;;;;7.73;5.80;;;;;;;;;;5115904;28;20667;-70
2022/03/21 12:46:16;;;;;;;8.47;5.93;;;;;;;;;;5114966;28;20246;-71
2022/03/21 12:48:46;;;;;;;10.57;5.63;;;;;;;;;;5116958;28;20192;-71
2022/03/21 12:51:23;;;;;;;8.50;5.50;;;;;;;;;;5114613;28;20227;-71
2022/03/21 12:54:11;;;;;;;6.73;5.53;;;;;;;;;;5115135;28;20204;-71
2022/03/21 12:56:39;;;;;;;8.80;5.67;;;;;;;;;;5112900;28;20750;-71
2022/03/21 12:59:07;;;;;;;6.37;4.83;;;;;;;;;;5113024;28;20260;-73
2022/03/21 13:01:44;;;;;;;6.00;4.67;;;;;;;;;;5115807;28;20228;-72
2022/03/21 13:12:30;;;;;;;7.57;5.73;;;;;;;;;;5115610;28;21331;-72
2022/03/21 13:15:02;;;;;;;6.43;4.93;;;;;;;;;;5115343;28;20196;-71
2022/03/21 13:17:45;;;;;;;7.63;5.23;;;;;;;;;;5107984;28;20222;-72
2022/03/21 13:20:14;;;;;;;6.17;5.40;;;;;;;;;;5114615;28;20228;-71
2022/03/21 13:22:42;;;;;;;5.23;4.50;;;;;;;;;;5116199;28;20220;-71
2022/03/21 13:25:22;;;;;;;5.73;4.97;;;;;;;;;;5115924;28;20204;-71
2022/03/21 13:27:50;;;;;;;7.03;4.47;;;;;;;;;;5113057;28;20211;-70
2022/03/21 13:30:19;;;;;;;6.50;4.03;;;;;;;;;;5113271;28;20201;-71
2022/03/21 13:32:48;;;;;;;8.03;5.17;;;;;;;;;;5106143;28;20657;-71
2022/03/21 13:35:16;;;;;;;5.93;4.70;;;;;;;;;;5103935;28;20261;-70
2022/03/21 13:37:59;;;;;;;8.60;5.00;;;;;;;;;;5106653;28;20217;-71
2022/03/21 13:40:27;;;;;;;7.20;5.77;;;;;;;;;;5104972;28;20198;-71
2022/03/21 13:42:55;;;;;;;4.87;4.33;;;;;;;;;;5103207;28;20283;-70
2022/03/21 13:45:24;;;;;;;6.33;4.83;;;;;;;;;;5104956;28;20296;-71
2022/03/21 13:47:54;;;;;;;7.93;5.10;;;;;;;;;;5105966;28;20236;-71
2022/03/21 13:50:29;;;;;;;7.93;5.47;;;;;;;;;;5102248;28;20251;-71
2022/03/21 13:52:58;;;;;;;8.33;5.37;;;;;;;;;;5103490;28;20299;-71
2022/03/21 13:55:38;;;;;;;13.40;5.73;;;;;;;;;;5103350;28;20217;-71
2022/03/21 13:58:07;;;;;;;8.53;5.83;;;;;;;;;;5103755;28;20201;-70
2022/03/21 14:00:36;;;;;;;12.10;5.90;;;;;;;;;;5104343;28;20193;-71
2022/03/21 14:03:07;;;;;;;7.43;5.43;;;;;;;;;;5106153;28;20287;-73
2022/03/21 14:05:36;;;;;;;9.53;6.80;;;;;;;;;;5107654;27;20248;-72
2022/03/21 14:08:11;;;;;;;6.67;5.43;;;;;;;;;;5106952;28;20229;-71
2022/03/21 14:10:40;;;;;;;6.20;5.60;;;;;;;;;;5107683;27;20198;-72
2022/03/21 14:13:13;;;;;;;10.50;5.43;;;;;;;;;;5107396;27;20275;-72
2022/03/21 14:15:41;;;;;;;6.47;5.27;;;;;;;;;;5106115;27;20296;-71
2022/03/21 14:18:12;;;;;;;7.73;5.37;;;;;;;;;;5113628;27;20259;-64
2022/03/21 14:20:40;;;;;;;6.33;5.53;;;;;;;;;;5104233;27;20198;-69
2022/03/21 14:23:08;;;;;;;7.00;4.73;;;;;;;;;;5108949;28;20204;-66
2022/03/21 14:28:21;;;;;;;6.67;4.63;;;;;;;;;;5112132;28;20235;-69
2022/03/21 14:30:50;;;;;;;8.13;5.20;;;;;;;;;;5110193;27;20229;-67
2022/03/21 14:33:20;;;;;;;8.10;4.83;;;;;;;;;;5113180;27;20692;-68
2022/03/21 14:35:47;;;;;;;5.67;4.87;;;;;;;;;;5115635;28;20263;-69
2022/03/21 14:38:15;;;;;;;5.80;4.70;;;;;;;;;;5118262;28;20685;-69
2022/03/21 14:40:44;;;;;;;9.57;4.90;;;;;;;;;;5107628;28;20633;-69
2022/03/21 14:43:12;;;;;;;7.23;5.17;;;;;;;;;;5110486;27;20276;-71
2022/03/21 14:45:40;;;;;;;5.87;4.60;;;;;;;;;;5106935;28;20703;-69
2022/03/21 14:48:08;;;;;;;7.53;5.27;;;;;;;;;;5104414;28;20206;-68
2022/03/21 14:50:38;;;;;;;7.80;5.73;;;;;;;;;;5110520;28;20196;-69
2022/03/21 14:53:06;;;;;;;8.13;6.30;;;;;;;;;;5104558;28;20275;-69
2022/03/21 14:55:34;;;;;;;11.50;5.90;;;;;;;;;;5105353;27;20640;-70
2022/03/21 14:58:02;;;;;;;6.63;4.83;;;;;;;;;;5101740;28;20197;-68
2022/03/21 15:00:30;;;;;;;7.50;5.33;;;;;;;;;;5106374;28;20292;-69
2022/03/21 15:02:58;;;;;;;6.43;5.77;;;;;;;;;;5105388;27;20241;-68
2022/03/21 15:05:27;;;;;;;7.07;5.00;;;;;;;;;;5114844;28;20224;-69
2022/03/21 15:07:58;;;;;;;5.80;5.20;;;;;;;;;;5117263;28;20225;-68
2022/03/21 15:10:26;;;;;;;7.87;5.30;;;;;;;;;;5115759;28;20610;-68
2022/03/21 15:12:55;;;;;;;6.73;5.13;;;;;;;;;;5113296;28;20248;-68
2022/03/21 15:15:23;;;;;;;13.03;5.63;;;;;;;;;;5115249;28;20739;-70
2022/03/21 15:17:52;;;;;;;10.00;5.73;;;;;;;;;;5114954;28;20193;-68
2022/03/21 15:20:20;;;;;;;7.37;5.90;;;;;;;;;;5114787;28;20258;-68
2022/03/21 15:22:48;;;;;;;6.57;5.13;;;;;;;;;;5115206;28;20228;-68
2022/03/21 15:25:19;;;;;;;8.40;5.57;;;;;;;;;;5116643;28;20265;-70
2022/03/21 15:28:06;;;;;;;8.27;5.23;;;;;;;;;;5113116;27;20296;-70
2022/03/21 15:30:34;;;;;;;8.00;5.30;;;;;;;;;;5112559;28;20245;-67